Time;durP1;ratioP1;P1;durP2;ratioP2;P2;SDS_P1;SDS_P2;PMS_P1;PMS_P2;Temp;Humidity;BMP_temperature;BMP_pressure;BME280_temperature;BME280_humidity;BME280_pressure;Samples;Min_cycle;Max_cycle;Signal;HPM_P1;HPM_P2
2022/06/05 00:01:16;;;;;;;32.73;29.43;;;16.50;99.90;;;;;;5084302;28;20442;-47
2022/06/05 00:04:02;;;;;;;29.60;26.57;;;16.40;99.90;;;;;;5082945;28;20784;-46
2022/06/05 00:06:48;;;;;;;26.90;24.00;;;16.40;99.90;;;;;;5083764;28;20448;-48
2022/06/05 00:09:29;;;;;;;31.40;25.17;;;16.50;99.90;;;;;;5083763;28;20640;-43
2022/06/05 00:12:07;;;;;;;27.80;23.97;;;16.40;99.90;;;;;;5084929;28;20453;-46
2022/06/05 00:14:39;;;;;;;26.13;23.53;;;16.30;99.90;;;;;;5070056;28;20477;-49
2022/06/05 00:17:15;;;;;;;22.10;19.83;;;16.20;99.90;;;;;;5076233;28;20462;-46
2022/06/05 00:19:46;;;;;;;24.27;19.20;;;16.10;99.90;;;;;;5075717;28;20437;-50
2022/06/05 00:22:13;;;;;;;18.53;16.63;;;16.00;99.90;;;;;;5076255;28;20469;-49
2022/06/05 00:24:41;;;;;;;17.33;15.63;;;16.00;99.90;;;;;;5075748;28;20442;-49
2022/06/05 00:27:29;;;;;;;17.40;15.80;;;15.70;99.90;;;;;;5075561;28;20419;-43
2022/06/05 00:30:38;;;;;;;12.97;11.67;;;15.80;99.90;;;;;;5076207;28;20445;-43
2022/06/05 00:33:11;;;;;;;12.43;11.30;;;15.60;99.90;;;;;;5073549;28;20462;-48
2022/06/05 00:36:13;;;;;;;12.77;11.47;;;15.70;99.90;;;;;;5072932;28;20212;-46
2022/06/05 00:38:51;;;;;;;11.00;9.90;;;15.80;99.90;;;;;;5072711;28;20433;-45
2022/06/05 00:41:40;;;;;;;10.60;9.50;;;16.10;99.90;;;;;;5074586;28;20422;-47
2022/06/05 00:44:11;;;;;;;10.73;9.83;;;16.20;99.90;;;;;;5075656;28;20420;-44
2022/06/05 00:46:41;;;;;;;10.47;9.43;;;16.10;99.90;;;;;;5075693;28;20517;-47
2022/06/05 00:49:10;;;;;;;12.60;9.47;;;16.00;99.90;;;;;;5078234;28;20442;-43
2022/06/05 00:51:38;;;;;;;11.57;9.10;;;16.00;99.90;;;;;;5078396;28;20446;-48
2022/06/05 00:54:06;;;;;;;9.73;8.30;;;16.20;99.90;;;;;;5080482;28;20865;-46
2022/06/05 00:56:34;;;;;;;8.77;8.07;;;16.30;99.90;;;;;;5083613;28;20416;-47
2022/06/05 00:59:01;;;;;;;7.40;6.37;;;16.30;99.90;;;;;;5090645;28;20400;-46
2022/06/05 01:01:29;;;;;;;7.50;6.90;;;16.40;99.90;;;;;;5089317;28;20742;-44
2022/06/05 01:04:01;;;;;;;9.23;8.37;;;16.40;99.90;;;;;;5090071;28;20796;-50
2022/06/05 01:06:30;;;;;;;7.70;7.10;;;16.40;99.90;;;;;;5086750;28;20428;-41
2022/06/05 01:08:57;;;;;;;8.50;7.80;;;16.30;99.90;;;;;;5085686;28;20427;-46
2022/06/05 01:11:43;;;;;;;8.07;7.37;;;16.40;99.90;;;;;;5086316;28;20824;-47
2022/06/05 01:14:38;;;;;;;8.10;7.30;;;16.30;99.90;;;;;;5083294;28;20621;-45
2022/06/05 01:17:26;;;;;;;7.70;6.97;;;16.20;99.90;;;;;;5083707;28;20444;-44
2022/06/05 01:20:37;;;;;;;7.40;6.90;;;16.10;99.90;;;;;;5083240;28;20443;-49
2022/06/05 01:23:33;;;;;;;7.23;6.63;;;16.20;99.90;;;;;;5081854;28;20494;-43
2022/06/05 01:26:16;;;;;;;8.40;7.63;;;16.30;99.90;;;;;;5085762;28;20773;-42
2022/06/05 01:29:14;;;;;;;8.40;7.60;;;16.10;99.90;;;;;;5087597;28;20204;-48
2022/06/05 01:31:48;;;;;;;9.30;8.50;;;15.90;99.90;;;;;;5083215;28;20452;-46
2022/06/05 01:34:21;;;;;;;8.27;7.57;;;15.90;99.90;;;;;;5086536;28;20488;-48
2022/06/05 01:37:01;;;;;;;7.60;7.00;;;15.90;99.90;;;;;;5080047;28;20417;-43
2022/06/05 01:39:31;;;;;;;8.48;7.63;;;16.00;99.90;;;;;;5092546;28;20539;-43
2022/06/05 01:42:11;;;;;;;11.13;9.77;;;15.80;99.90;;;;;;5089073;28;20209;-51
2022/06/05 01:44:47;;;;;;;9.70;8.85;;;15.80;99.90;;;;;;5076862;28;20423;-46
2022/06/05 01:47:34;;;;;;;9.18;8.18;;;15.90;99.90;;;;;;5088106;28;20413;-44
2022/06/05 01:50:11;;;;;;;10.57;9.45;;;15.90;99.90;;;;;;5083255;28;20214;-44
2022/06/05 01:52:46;;;;;;;9.73;8.88;;;16.00;99.90;;;;;;5085396;28;20234;-42
2022/06/05 01:55:22;;;;;;;10.45;9.40;;;15.90;99.90;;;;;;5081681;28;20236;-49
2022/06/05 01:57:53;;;;;;;9.68;8.85;;;15.90;99.90;;;;;;5077918;28;20204;-43
2022/06/05 02:00:22;;;;;;;8.82;8.05;;;15.80;99.90;;;;;;5085465;28;20326;-43
2022/06/05 02:03:08;;;;;;;10.65;9.75;;;15.80;99.90;;;;;;5079620;28;20225;-45
2022/06/05 02:05:55;;;;;;;10.20;9.40;;;15.50;99.90;;;;;;5077843;28;20371;-44
2022/06/05 02:08:28;;;;;;;12.60;11.40;;;15.60;99.90;;;;;;5089452;28;20286;-43
2022/06/05 02:11:10;;;;;;;10.98;9.88;;;15.60;99.90;;;;;;5082931;28;20768;-48
2022/06/05 02:13:37;;;;;;;11.70;10.60;;;15.60;99.90;;;;;;5072823;28;20437;-46
2022/06/05 02:16:05;;;;;;;13.00;11.32;;;15.50;99.90;;;;;;5018562;28;20201;-50
2022/06/05 02:18:33;;;;;;;11.27;10.32;;;15.60;99.90;;;;;;5088015;28;20227;-46
2022/06/05 02:21:02;;;;;;;11.60;10.50;;;15.50;99.90;;;;;;5081599;28;20418;-43
2022/06/05 02:23:32;;;;;;;12.15;10.95;;;15.50;99.90;;;;;;5084817;28;20438;-46
2022/06/05 02:26:05;;;;;;;11.82;10.70;;;15.40;99.90;;;;;;5084687;28;20203;-48
2022/06/05 02:28:34;;;;;;;12.73;11.52;;;15.40;99.90;;;;;;5083399;28;20202;-46
2022/06/05 02:31:10;;;;;;;12.02;11.02;;;15.40;99.90;;;;;;5083268;28;20546;-48
2022/06/05 02:33:53;;;;;;;10.55;9.45;;;15.40;99.90;;;;;;5081771;28;20229;-45
2022/06/05 02:36:51;;;;;;;13.38;11.50;;;15.30;99.90;;;;;;5079718;28;20216;-47
2022/06/05 02:39:49;;;;;;;10.90;9.63;;;15.30;99.90;;;;;;5082279;28;20278;-50
2022/06/05 02:42:24;;;;;;;11.48;10.45;;;15.30;99.90;;;;;;5087128;28;20297;-47
2022/06/05 02:45:29;;;;;;;13.00;11.82;;;15.20;99.90;;;;;;5082032;28;20535;-47
2022/06/05 02:48:04;;;;;;;12.70;11.50;;;15.20;99.90;;;;;;5075289;28;20509;-48
2022/06/05 02:50:37;;;;;;;14.07;12.52;;;15.20;99.90;;;;;;5079854;28;20199;-50
2022/06/05 02:53:07;;;;;;;13.52;12.18;;;15.20;99.90;;;;;;5081732;28;20223;-47
2022/06/05 02:55:35;;;;;;;15.18;13.68;;;15.10;99.90;;;;;;5080337;28;20223;-45
2022/06/05 02:58:04;;;;;;;17.40;15.85;;;15.10;99.90;;;;;;5076501;28;20207;-48
2022/06/05 03:00:33;;;;;;;14.13;12.52;;;15.10;99.90;;;;;;5077661;28;20298;-49
2022/06/05 03:05:47;;;;;;;15.25;13.85;;;15.10;99.90;;;;;;5076039;28;20199;-47
2022/06/05 03:08:16;;;;;;;17.58;13.25;;;15.20;99.90;;;;;;5077829;28;20217;-47
2022/06/05 03:10:44;;;;;;;16.80;15.10;;;15.20;99.90;;;;;;5077171;28;20211;-47
2022/06/05 03:13:13;;;;;;;13.90;12.60;;;15.10;99.90;;;;;;5075751;28;20250;-46
2022/06/05 03:15:41;;;;;;;18.52;14.88;;;15.10;99.90;;;;;;5076472;28;20229;-47
2022/06/05 03:18:12;;;;;;;20.80;15.40;;;15.20;99.90;;;;;;5076892;28;20203;-47
2022/06/05 03:20:40;;;;;;;18.10;14.25;;;15.20;99.90;;;;;;5076570;28;20240;-44
2022/06/05 03:23:09;;;;;;;17.40;15.65;;;15.20;99.90;;;;;;5077425;28;20214;-48
2022/06/05 03:25:39;;;;;;;18.08;16.27;;;15.30;99.90;;;;;;5069675;28;20235;-50
2022/06/05 03:28:08;;;;;;;15.85;14.20;;;15.40;99.90;;;;;;5077059;28;20410;-51
2022/06/05 03:30:40;;;;;;;17.92;16.13;;;15.60;99.90;;;;;;5076617;28;20227;-47
2022/06/05 03:33:08;;;;;;;33.58;18.42;;;15.50;99.90;;;;;;5080655;28;20227;-46
2022/06/05 03:35:37;;;;;;;20.48;18.52;;;15.30;99.90;;;;;;5080865;28;20442;-49
2022/06/05 03:38:05;;;;;;;20.30;18.20;;;14.90;99.90;;;;;;5076985;28;20211;-46
2022/06/05 03:40:33;;;;;;;20.95;18.83;;;14.70;99.90;;;;;;5076757;28;20215;-44
2022/06/05 03:43:01;;;;;;;19.92;18.00;;;14.80;99.90;;;;;;5076812;28;20413;-47
2022/06/05 03:45:28;;;;;;;21.35;19.05;;;14.80;99.90;;;;;;5076836;28;20208;-45
2022/06/05 03:47:56;;;;;;;22.02;19.83;;;14.90;99.90;;;;;;5076583;28;20242;-46
2022/06/05 03:50:23;;;;;;;22.75;20.23;;;15.00;99.90;;;;;;5076996;28;20215;-42
2022/06/05 03:52:50;;;;;;;20.10;18.20;;;15.00;99.90;;;;;;5071213;28;20233;-45
2022/06/05 03:55:20;;;;;;;19.73;17.70;;;15.30;99.90;;;;;;5076544;28;20228;-52
2022/06/05 03:57:47;;;;;;;20.00;17.90;;;15.70;99.90;;;;;;5076090;28;20390;-52
2022/06/05 04:00:16;;;;;;;20.40;17.67;;;15.80;99.90;;;;;;5076958;28;20215;-47
2022/06/05 04:02:45;;;;;;;19.03;17.23;;;16.10;99.90;;;;;;5075259;28;20727;-47
2022/06/05 04:05:16;;;;;;;21.07;17.70;;;16.40;99.90;;;;;;5076501;28;20429;-47
2022/06/05 04:07:44;;;;;;;18.87;16.50;;;16.60;99.90;;;;;;5076730;28;20534;-44
2022/06/05 04:10:14;;;;;;;18.67;16.70;;;16.50;99.90;;;;;;5076446;28;20485;-48
2022/06/05 04:12:41;;;;;;;18.63;15.97;;;16.70;99.90;;;;;;5076312;28;20492;-44
2022/06/05 04:15:09;;;;;;;17.00;15.43;;;16.70;99.90;;;;;;5076022;28;20456;-50
2022/06/05 04:17:40;;;;;;;16.80;15.20;;;16.60;99.90;;;;;;5076667;28;20621;-49
2022/06/05 04:20:12;;;;;;;16.80;14.87;;;16.60;99.90;;;;;;5073782;28;20573;-48
2022/06/05 04:22:40;;;;;;;15.60;14.03;;;16.90;99.90;;;;;;5076296;28;20500;-49
2022/06/05 04:25:11;;;;;;;16.30;14.83;;;16.90;99.90;;;;;;5075782;28;20475;-46
2022/06/05 04:27:38;;;;;;;17.20;14.07;;;17.10;99.90;;;;;;5079425;28;20434;-45
2022/06/05 04:30:06;;;;;;;14.97;13.53;;;17.00;99.90;;;;;;5079899;28;20703;-45
2022/06/05 04:32:33;;;;;;;14.70;13.30;;;17.20;99.90;;;;;;5080151;28;20459;-46
2022/06/05 04:35:05;;;;;;;13.60;12.40;;;17.40;99.90;;;;;;5079981;28;20722;-51
2022/06/05 04:37:33;;;;;;;15.13;13.00;;;17.40;99.90;;;;;;5072818;28;20419;-52
2022/06/05 04:40:00;;;;;;;14.93;13.43;;;17.50;99.90;;;;;;5080206;28;20420;-50
2022/06/05 04:42:28;;;;;;;13.23;12.03;;;17.60;99.90;;;;;;5071374;28;20456;-46
2022/06/05 04:44:56;;;;;;;12.77;11.47;;;17.60;99.90;;;;;;5079522;28;20822;-43
2022/06/05 04:47:23;;;;;;;12.77;10.30;;;17.50;99.90;;;;;;5079660;28;20431;-46
2022/06/05 04:49:51;;;;;;;12.57;11.47;;;17.60;99.90;;;;;;5079856;28;20443;-47
2022/06/05 04:52:18;;;;;;;12.93;11.73;;;17.50;99.90;;;;;;5079333;28;20442;-44
2022/06/05 04:54:45;;;;;;;12.40;11.10;;;17.50;99.90;;;;;;5080009;28;20488;-50
2022/06/05 04:57:12;;;;;;;13.13;11.83;;;17.70;99.90;;;;;;5080608;28;20425;-46
2022/06/05 04:59:40;;;;;;;11.90;10.70;;;17.80;99.90;;;;;;5079870;28;20620;-44
2022/06/05 05:02:07;;;;;;;12.77;11.33;;;18.00;99.90;;;;;;5078900;28;20463;-49
2022/06/05 05:04:35;;;;;;;11.47;10.30;;;18.10;99.90;;;;;;5079705;28;20432;-48
2022/06/05 05:07:03;;;;;;;12.33;11.13;;;18.40;99.90;;;;;;5079728;28;20796;-49
2022/06/05 05:09:31;;;;;;;10.53;9.53;;;18.50;99.90;;;;;;5079900;28;20462;-46
2022/06/05 05:11:58;;;;;;;12.13;10.80;;;18.50;99.90;;;;;;5079633;28;21063;-47
2022/06/05 05:14:25;;;;;;;10.63;9.63;;;18.40;99.90;;;;;;5079407;28;20725;-47
2022/06/05 05:16:52;;;;;;;10.30;9.20;;;18.30;99.90;;;;;;5079689;28;20410;-45
2022/06/05 05:19:20;;;;;;;10.50;9.60;;;18.40;99.90;;;;;;5079366;28;20422;-44
2022/06/05 05:21:47;;;;;;;10.77;9.77;;;18.60;99.90;;;;;;5079081;28;20416;-45
2022/06/05 05:24:14;;;;;;;10.33;9.47;;;18.60;99.90;;;;;;5080535;28;20422;-46
2022/06/05 05:26:41;;;;;;;9.50;8.67;;;18.70;99.90;;;;;;5084666;28;20570;-49
2022/06/05 05:29:08;;;;;;;11.23;8.80;;;18.80;99.90;;;;;;5084010;28;20432;-46
2022/06/05 05:31:38;;;;;;;9.20;8.30;;;18.90;99.90;;;;;;5082549;28;20413;-48
2022/06/05 05:34:06;;;;;;;8.57;7.83;;;18.90;99.90;;;;;;5078739;28;20437;-45
2022/06/05 05:36:35;;;;;;;9.53;7.20;;;19.10;99.90;;;;;;5079244;28;20464;-45
2022/06/05 05:42:05;;;;;;;7.93;7.13;;;19.10;99.90;;;;;;5078697;28;20418;-46
2022/06/05 05:44:45;;;;;;;6.83;6.33;;;19.20;99.90;;;;;;5071150;28;20420;-44
2022/06/05 05:47:16;;;;;;;7.47;6.87;;;19.30;99.90;;;;;;5078481;28;20422;-44
2022/06/05 05:49:44;;;;;;;6.63;6.13;;;19.30;99.90;;;;;;5078822;28;20632;-49
2022/06/05 05:52:12;;;;;;;7.50;6.53;;;19.40;99.90;;;;;;5078705;28;20460;-44
2022/06/05 05:54:40;;;;;;;6.20;5.80;;;19.50;99.90;;;;;;5078562;28;20458;-44
2022/06/05 05:57:08;;;;;;;6.70;6.00;;;19.50;99.90;;;;;;5078625;28;20429;-48
2022/06/05 05:59:35;;;;;;;6.80;5.83;;;19.80;99.90;;;;;;5078577;28;20414;-47
2022/06/05 06:02:06;;;;;;;6.07;5.57;;;20.10;99.90;;;;;;5077779;28;20451;-43
2022/06/05 06:04:33;;;;;;;7.40;6.70;;;20.10;99.90;;;;;;5078269;28;20606;-45
2022/06/05 06:07:01;;;;;;;5.93;5.43;;;20.40;99.90;;;;;;5078417;28;20443;-52
2022/06/05 06:09:28;;;;;;;7.03;6.30;;;20.50;99.90;;;;;;5074108;28;20426;-45
2022/06/05 06:11:55;;;;;;;6.07;5.50;;;20.40;99.90;;;;;;5078785;28;20415;-44
2022/06/05 06:14:22;;;;;;;7.00;6.30;;;20.40;99.90;;;;;;5078791;28;20527;-45
2022/06/05 06:16:49;;;;;;;5.90;5.40;;;20.70;99.90;;;;;;5079791;28;20960;-50
2022/06/05 06:19:16;;;;;;;5.70;5.20;;;20.80;99.90;;;;;;5079654;28;20477;-51
2022/06/05 06:21:44;;;;;;;5.50;5.00;;;21.10;99.90;;;;;;5078365;28;20805;-50
2022/06/05 06:24:12;;;;;;;5.53;5.03;;;21.20;99.90;;;;;;5078680;28;20409;-44
2022/06/05 06:26:41;;;;;;;5.83;5.33;;;21.90;99.90;;;;;;5077985;28;20442;-47
2022/06/05 06:29:09;;;;;;;6.07;5.43;;;22.60;99.90;;;;;;5077985;28;20531;-46
2022/06/05 06:31:41;;;;;;;6.33;5.73;;;22.50;99.90;;;;;;5077815;28;20802;-47
2022/06/05 06:34:09;;;;;;;6.03;5.53;;;22.50;99.90;;;;;;5078032;28;20526;-48
2022/06/05 06:36:37;;;;;;;8.13;5.90;;;22.60;99.90;;;;;;5078367;28;20479;-46
2022/06/05 06:39:20;;;;;;;4.83;4.50;;;23.00;99.90;;;;;;5078167;28;20646;-48
2022/06/05 06:41:48;;;;;;;5.23;4.83;;;23.30;99.90;;;;;;5076277;28;20447;-46
2022/06/05 06:44:17;;;;;;;5.40;5.00;;;23.50;99.90;;;;;;5077497;28;20507;-49
2022/06/05 06:46:45;;;;;;;4.90;4.53;;;23.60;99.90;;;;;;5077893;28;20458;-46
2022/06/05 06:49:12;;;;;;;5.20;4.80;;;24.10;99.90;;;;;;5077349;28;20440;-51
2022/06/05 06:51:39;;;;;;;6.53;5.23;;;25.00;99.90;;;;;;5077014;28;20633;-44
2022/06/05 06:54:07;;;;;;;5.20;4.73;;;25.80;99.90;;;;;;5077620;28;20668;-48
2022/06/05 06:56:35;;;;;;;4.50;4.10;;;26.30;99.90;;;;;;5077161;28;20828;-53
2022/06/05 06:59:04;;;;;;;5.70;5.30;;;26.60;99.90;;;;;;5077567;28;20436;-48
2022/06/05 07:01:32;;;;;;;5.93;5.33;;;27.10;99.90;;;;;;5076860;28;20655;-47
2022/06/05 07:03:59;;;;;;;5.63;4.90;;;28.70;96.70;;;;;;5084659;28;20491;-47
2022/06/05 07:06:27;;;;;;;5.10;4.70;;;30.80;90.70;;;;;;5076911;28;20477;-50
2022/06/05 07:08:54;;;;;;;5.03;4.63;;;31.50;82.50;;;;;;5077406;28;20441;-49
2022/06/05 07:11:22;;;;;;;4.83;4.43;;;32.00;77.90;;;;;;5077086;28;20457;-45
2022/06/05 07:13:50;;;;;;;4.13;3.83;;;33.50;70.20;;;;;;5081320;28;20489;-49
2022/06/05 07:16:18;;;;;;;4.60;4.30;;;34.90;66.40;;;;;;5076501;28;20531;-48
2022/06/05 07:18:46;;;;;;;7.10;4.10;;;35.90;61.60;;;;;;5077470;28;20439;-55
2022/06/05 07:21:16;;;;;;;6.47;5.10;;;35.50;60.90;;;;;;5076780;28;20448;-51
2022/06/05 07:23:44;;;;;;;5.00;4.70;;;34.60;60.20;;;;;;5077018;28;20660;-48
2022/06/05 07:26:15;;;;;;;4.60;4.30;;;35.50;59.50;;;;;;5077448;28;20436;-51
2022/06/05 07:28:42;;;;;;;4.00;3.60;;;37.30;57.30;;;;;;5070601;28;20439;-52
2022/06/05 07:31:11;;;;;;;4.83;4.30;;;37.80;55.40;;;;;;5076839;28;20677;-49
2022/06/05 07:33:39;;;;;;;5.00;4.57;;;37.20;55.70;;;;;;5076333;28;20562;-49
2022/06/05 07:36:10;;;;;;;4.57;4.27;;;34.60;57.40;;;;;;5076725;28;20830;-46
2022/06/05 07:38:38;;;;;;;4.07;3.67;;;33.60;59.80;;;;;;5079810;28;20691;-49
2022/06/05 07:41:13;;;;;;;4.20;3.90;;;32.60;62.00;;;;;;5081933;28;20693;-51
2022/06/05 07:43:41;;;;;;;4.50;4.20;;;34.60;58.90;;;;;;5076481;28;20455;-50
2022/06/05 07:46:08;;;;;;;4.70;4.30;;;35.50;57.40;;;;;;5076809;28;20509;-49
2022/06/05 07:48:36;;;;;;;3.93;3.63;;;36.00;56.40;;;;;;5076621;28;20470;-51
2022/06/05 07:56:41;;;;;;;4.13;3.83;;;33.70;58.50;;;;;;5074740;28;20489;-48
2022/06/05 07:59:08;;;;;;;5.03;4.73;;;34.20;57.90;;;;;;5076042;28;20471;-47
2022/06/05 08:01:57;;;;;;;3.20;3.00;;;34.20;58.10;;;;;;5075179;28;20844;-48
2022/06/05 08:04:26;;;;;;;4.50;4.10;;;33.30;59.40;;;;;;5076171;28;20440;-52
2022/06/05 08:06:55;;;;;;;9.20;4.00;;;34.80;57.80;;;;;;5076764;28;20512;-46
2022/06/05 08:09:23;;;;;;;5.23;4.83;;;35.60;56.00;;;;;;5078441;28;20448;-50
2022/06/05 08:11:52;;;;;;;5.27;4.87;;;36.70;55.30;;;;;;5076283;28;20468;-45
2022/06/05 08:14:19;;;;;;;4.30;4.00;;;37.90;54.30;;;;;;5076415;28;20471;-53
2022/06/05 08:16:46;;;;;;;4.50;4.20;;;38.10;52.90;;;;;;5070600;28;20484;-44
2022/06/05 08:19:16;;;;;;;4.30;4.00;;;39.30;51.80;;;;;;5076822;28;20462;-47
2022/06/05 08:21:44;;;;;;;6.97;6.43;;;39.50;50.70;;;;;;5075821;28;20454;-48
2022/06/05 08:24:11;;;;;;;5.33;5.00;;;40.10;50.30;;;;;;5074261;28;20442;-50
2022/06/05 08:26:39;;;;;;;4.70;4.30;;;38.50;51.30;;;;;;5075907;28;20505;-53
2022/06/05 08:29:06;;;;;;;4.87;3.87;;;38.60;51.20;;;;;;5076517;28;20440;-51
2022/06/05 08:31:35;;;;;;;4.97;4.07;;;39.20;50.30;;;;;;5075746;28;20522;-50
2022/06/05 08:34:03;;;;;;;3.93;3.70;;;39.10;50.90;;;;;;5076274;28;20802;-49
2022/06/05 08:36:34;;;;;;;5.27;4.80;;;40.40;49.30;;;;;;5074061;28;20478;-50
2022/06/05 08:42:18;;;;;;;3.70;3.50;;;38.30;51.20;;;;;;5073697;28;20478;-43
2022/06/05 08:44:58;;;;;;;4.50;4.20;;;37.50;51.80;;;;;;5072476;28;20432;-47
2022/06/05 08:47:30;;;;;;;5.00;4.50;;;38.20;51.20;;;;;;5076237;28;20985;-50
2022/06/05 08:50:03;;;;;;;5.27;4.87;;;39.10;50.60;;;;;;5076343;28;20435;-47
2022/06/05 08:52:51;;;;;;;4.47;4.17;;;40.10;49.60;;;;;;5076168;28;20873;-52
2022/06/05 08:55:25;;;;;;;11.57;10.40;;;41.80;48.00;;;;;;5075898;28;20443;-49
2022/06/05 08:58:03;;;;;;;4.10;3.80;;;42.40;47.00;;;;;;5080100;28;20441;-45
2022/06/05 09:00:40;;;;;;;4.43;4.03;;;42.60;46.90;;;;;;5084188;28;20435;-54
2022/06/05 09:03:48;;;;;;;4.53;4.20;;;43.00;46.30;;;;;;5093202;28;20482;-53
2022/06/05 09:06:29;;;;;;;4.60;4.20;;;42.60;46.10;;;;;;5071255;28;20471;-50
2022/06/05 09:08:58;;;;;;;4.67;4.03;;;42.70;46.70;;;;;;5077874;28;20443;-49
2022/06/05 09:11:55;;;;;;;4.70;4.40;;;42.40;46.00;;;;;;5075718;28;20431;-49
2022/06/05 09:14:51;;;;;;;7.43;6.70;;;41.40;46.30;;;;;;5077839;28;20427;-45
2022/06/05 09:17:20;;;;;;;4.83;4.53;;;41.70;46.80;;;;;;5078873;28;21068;-43
2022/06/05 09:19:51;;;;;;;4.37;3.97;;;42.30;46.30;;;;;;5079787;28;20696;-49
2022/06/05 09:22:28;;;;;;;4.07;3.77;;;41.00;47.00;;;;;;5074165;28;20475;-47
2022/06/05 09:25:20;;;;;;;4.93;4.53;;;40.60;47.30;;;;;;5079406;28;20432;-45
2022/06/05 09:27:51;;;;;;;5.13;4.47;;;37.70;48.80;;;;;;5079281;28;20431;-49
2022/06/05 09:30:36;;;;;;;4.87;4.57;;;36.00;51.80;;;;;;5081742;28;20462;-47
2022/06/05 09:33:18;;;;;;;4.20;3.90;;;33.20;54.80;;;;;;5092481;28;20981;-47
2022/06/05 09:35:55;;;;;;;6.63;5.80;;;32.00;57.40;;;;;;5095905;28;20478;-48
2022/06/05 09:38:35;;;;;;;4.80;4.27;;;30.50;60.30;;;;;;5082416;28;20469;-46
2022/06/05 09:41:11;;;;;;;4.53;4.23;;;29.70;63.80;;;;;;5079047;28;20446;-54
2022/06/05 09:44:07;;;;;;;3.70;3.40;;;28.90;64.20;;;;;;5075836;28;20459;-53
2022/06/05 09:46:52;;;;;;;4.60;4.30;;;28.00;63.10;;;;;;5075421;28;20507;-45
2022/06/05 09:49:25;;;;;;;5.93;5.43;;;27.40;64.00;;;;;;5078995;28;20462;-47
2022/06/05 09:51:53;;;;;;;4.60;4.20;;;27.10;68.10;;;;;;5078633;28;20506;-48
2022/06/05 09:54:28;;;;;;;5.07;4.57;;;27.10;70.10;;;;;;5078624;28;20448;-47
2022/06/05 10:00:14;;;;;;;4.20;3.90;;;26.70;73.00;;;;;;5079170;28;20498;-53
2022/06/05 10:02:47;;;;;;;3.90;3.63;;;26.50;75.00;;;;;;5076143;28;20467;-48
2022/06/05 10:05:23;;;;;;;3.50;3.30;;;26.40;73.00;;;;;;5082029;28;20442;-48
2022/06/05 10:08:02;;;;;;;4.83;4.20;;;26.10;74.00;;;;;;5078706;28;20439;-48
2022/06/05 10:10:36;;;;;;;6.13;4.30;;;25.70;75.10;;;;;;5075933;28;20444;-47
2022/06/05 10:13:42;;;;;;;4.70;4.30;;;25.70;77.00;;;;;;5083183;28;20455;-46
2022/06/05 10:16:33;;;;;;;4.60;4.30;;;25.90;77.30;;;;;;5075553;28;20476;-48
2022/06/05 10:19:30;;;;;;;5.13;4.60;;;26.00;76.50;;;;;;5078410;28;20436;-47
2022/06/05 10:22:08;;;;;;;4.30;4.00;;;25.90;78.80;;;;;;5074085;28;20825;-50
2022/06/05 10:24:55;;;;;;;4.80;4.50;;;26.10;79.10;;;;;;5077866;28;20447;-53
2022/06/05 10:27:22;;;;;;;5.67;4.50;;;26.20;80.00;;;;;;5090215;28;20444;-46
2022/06/05 10:29:55;;;;;;;4.47;4.07;;;25.80;80.10;;;;;;5087479;28;20445;-42
2022/06/05 10:32:41;;;;;;;5.20;4.80;;;25.80;81.40;;;;;;5083406;28;20455;-47
2022/06/05 10:35:09;;;;;;;4.67;4.10;;;25.60;83.20;;;;;;5092757;28;20422;-48
2022/06/05 10:37:49;;;;;;;4.50;4.10;;;25.90;85.70;;;;;;5084641;28;20480;-51
2022/06/05 10:40:30;;;;;;;7.83;4.47;;;26.10;77.60;;;;;;5078014;28;21072;-44
2022/06/05 10:43:25;;;;;;;4.20;3.90;;;26.00;78.90;;;;;;5077153;28;20432;-49
2022/06/05 10:46:02;;;;;;;6.53;4.40;;;25.50;81.40;;;;;;5072683;28;20410;-43
2022/06/05 10:48:48;;;;;;;4.17;3.87;;;25.30;82.30;;;;;;5075501;28;20415;-49
2022/06/05 10:51:24;;;;;;;4.50;4.00;;;25.30;83.90;;;;;;5077332;28;20446;-48
2022/06/05 10:54:06;;;;;;;4.30;4.00;;;25.40;82.50;;;;;;5071313;28;21159;-49
2022/06/05 10:56:59;;;;;;;4.87;4.47;;;25.40;84.60;;;;;;5071394;28;20467;-51
2022/06/05 10:59:44;;;;;;;4.00;3.60;;;25.50;83.00;;;;;;5080652;28;20806;-47
2022/06/05 11:02:34;;;;;;;4.80;4.50;;;25.40;83.90;;;;;;5076995;28;20426;-47
2022/06/05 11:05:39;;;;;;;3.40;3.20;;;25.40;83.60;;;;;;5072165;28;20450;-50
2022/06/05 11:08:24;;;;;;;3.80;3.50;;;25.50;85.90;;;;;;5076285;28;20476;-47
2022/06/05 11:14:47;;;;;;;3.90;3.60;;;25.70;86.10;;;;;;5072168;28;20820;-47
2022/06/05 11:17:32;;;;;;;4.23;3.90;;;25.40;83.40;;;;;;5074878;28;20488;-50
2022/06/05 11:20:24;;;;;;;5.10;4.70;;;25.60;83.50;;;;;;5077085;28;20469;-47
2022/06/05 11:23:07;;;;;;;3.97;3.67;;;25.90;83.90;;;;;;5071584;28;20440;-46
2022/06/05 11:25:53;;;;;;;3.90;3.60;;;26.00;80.60;;;;;;5069632;28;20430;-47
2022/06/05 11:28:39;;;;;;;4.40;4.00;;;26.00;79.70;;;;;;5076752;28;20502;-47
2022/06/05 11:31:24;;;;;;;8.67;3.80;;;26.00;80.10;;;;;;5076983;28;20439;-44
2022/06/05 11:34:14;;;;;;;6.73;4.17;;;26.10;78.80;;;;;;5074871;28;20455;-46
2022/06/05 11:36:52;;;;;;;12.03;4.20;;;26.00;78.70;;;;;;5074019;28;20475;-48
2022/06/05 11:39:26;;;;;;;4.60;4.20;;;26.00;78.70;;;;;;5074503;28;20415;-48
2022/06/05 11:42:02;;;;;;;3.73;3.50;;;25.90;79.30;;;;;;5086428;28;20407;-49
2022/06/05 11:44:45;;;;;;;3.73;3.53;;;25.80;79.90;;;;;;5092778;28;20417;-49
2022/06/05 11:47:38;;;;;;;4.20;3.83;;;26.00;80.60;;;;;;5094292;28;20442;-53
2022/06/05 11:50:30;;;;;;;4.43;3.63;;;26.20;81.70;;;;;;5075248;28;20617;-49
2022/06/05 11:53:09;;;;;;;4.50;4.17;;;26.00;81.50;;;;;;5075585;28;20462;-49
2022/06/05 11:55:46;;;;;;;4.90;4.50;;;25.80;80.10;;;;;;5073622;28;20456;-47
2022/06/05 11:58:17;;;;;;;4.50;4.10;;;25.90;80.70;;;;;;5076329;28;20437;-48
2022/06/05 12:00:56;;;;;;;4.33;4.03;;;25.80;83.20;;;;;;5075574;28;20833;-47
2022/06/05 12:04:10;;;;;;;5.40;4.07;;;25.70;84.60;;;;;;5076484;28;20451;-44
2022/06/05 12:06:44;;;;;;;3.60;3.40;;;26.00;82.90;;;;;;5069163;28;20718;-52
2022/06/05 12:09:24;;;;;;;5.30;4.10;;;26.40;81.40;;;;;;5075673;28;20433;-47
2022/06/05 12:12:18;;;;;;;4.77;4.30;;;26.40;79.00;;;;;;5071172;28;20765;-47
2022/06/05 12:15:02;;;;;;;4.00;3.70;;;26.40;77.50;;;;;;5075304;28;20493;-51
2022/06/05 12:17:41;;;;;;;3.30;3.10;;;26.50;77.90;;;;;;5076042;28;20487;-48
2022/06/05 12:20:31;;;;;;;3.80;3.53;;;26.40;78.70;;;;;;5075775;28;20427;-46
2022/06/05 12:23:20;;;;;;;3.43;3.23;;;26.50;77.80;;;;;;5076081;28;20442;-43
2022/06/05 12:26:06;;;;;;;5.63;4.30;;;26.40;77.40;;;;;;5070441;28;20468;-48
2022/06/05 12:28:52;;;;;;;3.83;3.63;;;26.20;77.60;;;;;;5076116;28;20440;-52
2022/06/05 12:31:29;;;;;;;4.27;3.97;;;26.10;78.10;;;;;;5077724;28;20775;-48
2022/06/05 12:34:03;;;;;;;3.90;3.60;;;26.00;79.50;;;;;;5071923;28;21171;-48
2022/06/05 12:36:33;;;;;;;4.03;3.73;;;25.90;79.50;;;;;;5078904;28;20476;-50
2022/06/05 12:39:04;;;;;;;4.50;4.10;;;26.00;79.20;;;;;;5076826;28;20447;-48
2022/06/05 12:41:43;;;;;;;3.87;3.57;;;25.90;78.00;;;;;;5076126;28;20421;-46
2022/06/05 12:44:26;;;;;;;3.57;3.30;;;26.00;77.50;;;;;;5076049;28;20428;-50
2022/06/05 12:46:59;;;;;;;3.83;3.53;;;25.80;75.40;;;;;;5074264;28;20689;-46
2022/06/05 12:49:32;;;;;;;3.60;3.40;;;26.00;76.80;;;;;;5079835;28;20788;-49
2022/06/05 12:52:27;;;;;;;3.43;3.23;;;25.90;74.40;;;;;;5081511;28;20480;-48
2022/06/05 12:55:13;;;;;;;3.90;3.60;;;25.80;76.40;;;;;;5074870;28;20443;-48
2022/06/05 12:57:46;;;;;;;3.70;3.40;;;25.80;76.70;;;;;;5075631;28;20511;-48
2022/06/05 13:00:21;;;;;;;6.30;3.60;;;25.80;76.80;;;;;;5080508;28;20761;-46
2022/06/05 13:03:29;;;;;;;3.63;3.33;;;26.00;77.00;;;;;;5077270;28;20599;-46
2022/06/05 13:06:01;;;;;;;3.23;3.03;;;26.30;75.90;;;;;;5079234;28;20421;-52
2022/06/05 13:08:41;;;;;;;4.13;3.73;;;26.40;75.90;;;;;;5070974;28;20413;-47
2022/06/05 13:11:40;;;;;;;4.17;3.87;;;26.60;75.80;;;;;;5079199;28;20481;-48
2022/06/05 13:14:14;;;;;;;4.23;3.93;;;26.70;72.40;;;;;;5079240;28;20556;-49
2022/06/05 13:16:56;;;;;;;4.40;4.10;;;26.80;72.90;;;;;;5079287;28;20836;-47
2022/06/05 13:19:23;;;;;;;3.67;3.23;;;26.40;73.20;;;;;;5079570;28;20453;-48
2022/06/05 13:22:16;;;;;;;4.13;3.80;;;26.30;73.60;;;;;;5078320;28;20425;-49
2022/06/05 13:24:50;;;;;;;3.97;3.67;;;26.20;76.90;;;;;;5073667;28;20646;-45
2022/06/05 13:27:32;;;;;;;4.40;4.10;;;26.30;75.20;;;;;;5078096;28;20846;-52
2022/06/05 13:30:08;;;;;;;5.13;4.63;;;26.30;75.90;;;;;;5078328;28;20522;-51
2022/06/05 13:33:00;;;;;;;3.90;3.60;;;26.40;76.00;;;;;;5071528;28;20494;-49
2022/06/05 13:35:39;;;;;;;3.97;3.67;;;26.70;75.60;;;;;;5077455;28;20466;-50
2022/06/05 13:38:09;;;;;;;4.20;3.90;;;26.90;76.50;;;;;;5078431;28;20482;-49
2022/06/05 13:40:51;;;;;;;4.50;4.20;;;26.80;75.30;;;;;;5071369;28;20445;-50
2022/06/05 13:43:24;;;;;;;4.50;4.20;;;26.40;75.00;;;;;;5078030;28;20452;-45